TimeEDT,TemperatureF,Dew PointF,Humidity,Sea Level PressureIn,VisibilityMPH,Wind Direction,Wind SpeedMPH,Gust SpeedMPH,PrecipitationIn,Events,Conditions,WindDirDegrees,DateUTC
12:53 AM,51.1,37.9,61,29.87,10.0,NNW,6.9,-,N/A,,Clear,330,2012-10-17 04:53:00
1:53 AM,50.0,39.9,68,29.88,10.0,NNW,8.1,-,N/A,,Clear,330,2012-10-17 05:53:00
2:53 AM,48.0,39.9,74,29.87,10.0,NNW,9.2,-,N/A,,Clear,340,2012-10-17 06:53:00
3:53 AM,48.0,41.0,77,29.88,10.0,North,5.8,-,N/A,,Clear,10,2012-10-17 07:53:00
4:53 AM,44.1,39.9,85,29.89,10.0,North,5.8,-,N/A,,Clear,10,2012-10-17 08:53:00
5:53 AM,45.0,39.9,82,29.91,10.0,North,6.9,-,N/A,,Partly Cloudy,10,2012-10-17 09:53:00
6:53 AM,46.0,39.0,76,29.93,10.0,North,6.9,-,N/A,,Clear,360,2012-10-17 10:53:00
7:53 AM,48.9,39.0,69,29.94,10.0,North,6.9,-,N/A,,Clear,360,2012-10-17 11:53:00
8:53 AM,51.1,39.0,63,29.94,10.0,North,8.1,-,N/A,,Clear,350,2012-10-17 12:53:00
9:53 AM,53.1,41.0,64,29.96,10.0,NW,9.2,-,N/A,,Clear,310,2012-10-17 13:53:00
10:53 AM,53.1,42.1,66,29.95,10.0,NW,9.2,-,N/A,,Clear,310,2012-10-17 14:53:00
11:53 AM,54.0,42.1,64,29.95,10.0,NNW,8.1,-,N/A,,Clear,340,2012-10-17 15:53:00
12:53 PM,54.0,42.1,64,29.93,10.0,Variable,5.8,-,N/A,,Clear,0,2012-10-17 16:53:00
1:53 PM,55.0,43.0,64,29.94,10.0,Variable,5.8,-,N/A,,Clear,0,2012-10-17 17:53:00
2:53 PM,55.9,41.0,57,29.94,10.0,NW,6.9,-,N/A,,Clear,320,2012-10-17 18:53:00
3:53 PM,55.9,39.9,55,29.94,10.0,Calm,Calm,-,N/A,,Clear,0,2012-10-17 19:53:00
4:53 PM,54.0,42.1,64,29.96,10.0,North,3.5,-,N/A,,Clear,350,2012-10-17 20:53:00
5:53 PM,51.1,42.1,71,29.97,10.0,Calm,Calm,-,N/A,,Clear,0,2012-10-17 21:53:00
6:53 PM,48.9,44.1,83,29.98,10.0,Calm,Calm,-,N/A,,Clear,0,2012-10-17 22:53:00
7:53 PM,48.9,43.0,80,29.99,10.0,Calm,Calm,-,N/A,,Clear,0,2012-10-17 23:53:00
8:53 PM,46.0,43.0,89,30.01,10.0,Calm,Calm,-,N/A,,Clear,0,2012-10-18 00:53:00
9:53 PM,45.0,42.1,90,30.02,10.0,Calm,Calm,-,N/A,,Clear,0,2012-10-18 01:53:00
10:53 PM,46.0,43.0,89,30.02,9.0,Calm,Calm,-,N/A,,Clear,0,2012-10-18 02:53:00
11:53 PM,46.0,43.0,89,30.02,9.0,Calm,Calm,-,N/A,,Clear,0,2012-10-18 03:53:00